sensor_id;sensor_type;location;lat;lon;timestamp;temperature;humidity
23769;DHT22;12064;50.890;5.424;2022-07-29T00:08:45;28.10;63.20
23769;DHT22;12064;50.890;5.424;2022-07-29T00:17:36;28.10;63.80
23769;DHT22;12064;50.890;5.424;2022-07-29T00:26:27;27.90;64.30
23769;DHT22;12064;50.890;5.424;2022-07-29T00:35:21;27.90;64.70
23769;DHT22;12064;50.890;5.424;2022-07-29T00:44:41;27.90;64.90
23769;DHT22;12064;50.890;5.424;2022-07-29T00:53:35;27.80;65.10
23769;DHT22;12064;50.890;5.424;2022-07-29T01:02:26;27.90;65.20
23769;DHT22;12064;50.890;5.424;2022-07-29T01:11:21;27.80;65.40
23769;DHT22;12064;50.890;5.424;2022-07-29T01:29:41;27.70;66.00
23769;DHT22;12064;50.890;5.424;2022-07-29T01:38:35;27.80;65.20
23769;DHT22;12064;50.890;5.424;2022-07-29T01:47:35;28.00;64.50
23769;DHT22;12064;50.890;5.424;2022-07-29T01:56:30;27.80;64.60
23769;DHT22;12064;50.890;5.424;2022-07-29T02:05:26;27.70;65.80
23769;DHT22;12064;50.890;5.424;2022-07-29T02:14:20;27.60;66.50
23769;DHT22;12064;50.890;5.424;2022-07-29T02:23:15;27.60;67.00
23769;DHT22;12064;50.890;5.424;2022-07-29T02:32:10;27.60;67.10
23769;DHT22;12064;50.890;5.424;2022-07-29T02:41:05;27.60;67.10
23769;DHT22;12064;50.890;5.424;2022-07-29T02:58:54;27.60;67.70
23769;DHT22;12064;50.890;5.424;2022-07-29T03:07:54;27.50;68.00
23769;DHT22;12064;50.890;5.424;2022-07-29T03:16:46;27.40;68.10
23769;DHT22;12064;50.890;5.424;2022-07-29T03:25:37;27.60;67.90
23769;DHT22;12064;50.890;5.424;2022-07-29T03:34:27;27.50;68.10
23769;DHT22;12064;50.890;5.424;2022-07-29T03:43:18;27.50;67.80
23769;DHT22;12064;50.890;5.424;2022-07-29T03:52:11;27.50;67.80
23769;DHT22;12064;50.890;5.424;2022-07-29T04:01:02;27.40;68.20
23769;DHT22;12064;50.890;5.424;2022-07-29T04:09:53;27.40;68.20
23769;DHT22;12064;50.890;5.424;2022-07-29T04:18:46;27.50;68.30
23769;DHT22;12064;50.890;5.424;2022-07-29T04:27:36;27.40;68.40
23769;DHT22;12064;50.890;5.424;2022-07-29T04:36:47;27.40;68.50
23769;DHT22;12064;50.890;5.424;2022-07-29T04:45:39;27.60;67.80
23769;DHT22;12064;50.890;5.424;2022-07-29T04:54:30;27.40;69.10
23769;DHT22;12064;50.890;5.424;2022-07-29T05:03:20;27.40;68.30
23769;DHT22;12064;50.890;5.424;2022-07-29T05:12:14;27.40;68.70
23769;DHT22;12064;50.890;5.424;2022-07-29T05:21:04;27.40;68.40
23769;DHT22;12064;50.890;5.424;2022-07-29T05:29:58;27.60;67.90
23769;DHT22;12064;50.890;5.424;2022-07-29T05:38:48;27.60;68.20
23769;DHT22;12064;50.890;5.424;2022-07-29T05:47:39;27.60;67.90
23769;DHT22;12064;50.890;5.424;2022-07-29T05:56:29;27.60;67.70
23769;DHT22;12064;50.890;5.424;2022-07-29T06:05:20;27.80;67.60
23769;DHT22;12064;50.890;5.424;2022-07-29T06:14:11;27.90;67.70
23769;DHT22;12064;50.890;5.424;2022-07-29T06:23:02;27.90;67.90
23769;DHT22;12064;50.890;5.424;2022-07-29T06:31:56;27.90;67.90
23769;DHT22;12064;50.890;5.424;2022-07-29T06:40:47;27.60;68.40
23769;DHT22;12064;50.890;5.424;2022-07-29T06:49:54;27.70;68.80
23769;DHT22;12064;50.890;5.424;2022-07-29T06:58:44;27.60;69.00
23769;DHT22;12064;50.890;5.424;2022-07-29T07:07:35;27.60;69.10
23769;DHT22;12064;50.890;5.424;2022-07-29T07:16:26;27.70;69.10
23769;DHT22;12064;50.890;5.424;2022-07-29T07:25:18;27.90;69.20
23769;DHT22;12064;50.890;5.424;2022-07-29T07:34:09;27.90;69.40
23769;DHT22;12064;50.890;5.424;2022-07-29T07:43:00;27.90;69.90
23769;DHT22;12064;50.890;5.424;2022-07-29T07:52:07;28.20;68.20
23769;DHT22;12064;50.890;5.424;2022-07-29T08:01:02;28.00;68.90
23769;DHT22;12064;50.890;5.424;2022-07-29T08:10:06;28.10;68.40
23769;DHT22;12064;50.890;5.424;2022-07-29T08:18:57;27.90;68.50
23769;DHT22;12064;50.890;5.424;2022-07-29T08:27:48;28.20;68.20
23769;DHT22;12064;50.890;5.424;2022-07-29T08:36:39;28.20;68.00
23769;DHT22;12064;50.890;5.424;2022-07-29T08:45:41;28.30;67.50
23769;DHT22;12064;50.890;5.424;2022-07-29T08:54:34;28.30;67.50
23769;DHT22;12064;50.890;5.424;2022-07-29T09:03:30;28.30;67.10
23769;DHT22;12064;50.890;5.424;2022-07-29T09:12:21;28.40;67.00
23769;DHT22;12064;50.890;5.424;2022-07-29T09:21:14;28.40;66.80
23769;DHT22;12064;50.890;5.424;2022-07-29T09:30:25;28.40;66.80
23769;DHT22;12064;50.890;5.424;2022-07-29T09:39:38;28.40;66.90
23769;DHT22;12064;50.890;5.424;2022-07-29T09:48:43;28.40;66.80
23769;DHT22;12064;50.890;5.424;2022-07-29T09:57:34;28.50;66.30
23769;DHT22;12064;50.890;5.424;2022-07-29T10:06:25;28.50;66.30
23769;DHT22;12064;50.890;5.424;2022-07-29T10:15:16;28.60;66.10
23769;DHT22;12064;50.890;5.424;2022-07-29T10:24:07;28.60;66.00
23769;DHT22;12064;50.890;5.424;2022-07-29T10:42:22;28.60;65.70
23769;DHT22;12064;50.890;5.424;2022-07-29T10:51:14;28.60;65.80
23769;DHT22;12064;50.890;5.424;2022-07-29T11:09:19;28.60;65.60
23769;DHT22;12064;50.890;5.424;2022-07-29T11:18:09;28.60;65.60
23769;DHT22;12064;50.890;5.424;2022-07-29T11:36:13;28.70;65.50
23769;DHT22;12064;50.890;5.424;2022-07-29T11:53:57;28.60;65.50
23769;DHT22;12064;50.890;5.424;2022-07-29T12:02:57;28.70;65.70
23769;DHT22;12064;50.890;5.424;2022-07-29T12:11:58;28.60;65.70
23769;DHT22;12064;50.890;5.424;2022-07-29T12:21:00;28.60;65.70
23769;DHT22;12064;50.890;5.424;2022-07-29T12:30:10;28.70;65.40
23769;DHT22;12064;50.890;5.424;2022-07-29T12:39:01;28.70;65.70
23769;DHT22;12064;50.890;5.424;2022-07-29T12:47:52;28.80;65.40
23769;DHT22;12064;50.890;5.424;2022-07-29T12:56:45;28.80;65.40
23769;DHT22;12064;50.890;5.424;2022-07-29T13:05:44;28.80;65.30
23769;DHT22;12064;50.890;5.424;2022-07-29T13:14:46;28.80;65.30
23769;DHT22;12064;50.890;5.424;2022-07-29T13:23:37;28.80;65.30
23769;DHT22;12064;50.890;5.424;2022-07-29T13:32:29;28.90;65.30
23769;DHT22;12064;50.890;5.424;2022-07-29T13:41:20;28.90;65.20
23769;DHT22;12064;50.890;5.424;2022-07-29T13:50:14;28.90;65.10
23769;DHT22;12064;50.890;5.424;2022-07-29T13:59:07;29.00;65.20
23769;DHT22;12064;50.890;5.424;2022-07-29T14:08:01;29.00;65.10
23769;DHT22;12064;50.890;5.424;2022-07-29T14:16:51;29.00;65.10
23769;DHT22;12064;50.890;5.424;2022-07-29T14:25:42;29.10;64.90
23769;DHT22;12064;50.890;5.424;2022-07-29T14:34:36;29.00;65.00
23769;DHT22;12064;50.890;5.424;2022-07-29T14:43:27;29.00;64.90
23769;DHT22;12064;50.890;5.424;2022-07-29T14:52:20;29.10;64.80
23769;DHT22;12064;50.890;5.424;2022-07-29T15:01:11;29.10;64.90
23769;DHT22;12064;50.890;5.424;2022-07-29T15:10:11;29.00;65.10
23769;DHT22;12064;50.890;5.424;2022-07-29T15:19:02;29.00;64.80
23769;DHT22;12064;50.890;5.424;2022-07-29T15:27:52;29.10;65.50
23769;DHT22;12064;50.890;5.424;2022-07-29T15:36:45;29.10;65.30
23769;DHT22;12064;50.890;5.424;2022-07-29T15:45:37;29.10;65.30
23769;DHT22;12064;50.890;5.424;2022-07-29T15:54:29;29.00;65.30
23769;DHT22;12064;50.890;5.424;2022-07-29T16:03:24;29.10;65.30
23769;DHT22;12064;50.890;5.424;2022-07-29T16:12:20;29.10;65.20
23769;DHT22;12064;50.890;5.424;2022-07-29T16:21:11;29.10;65.10
23769;DHT22;12064;50.890;5.424;2022-07-29T16:30:25;29.10;65.20
23769;DHT22;12064;50.890;5.424;2022-07-29T16:39:15;29.10;64.70
23769;DHT22;12064;50.890;5.424;2022-07-29T16:48:09;29.20;64.60
23769;DHT22;12064;50.890;5.424;2022-07-29T16:57:00;29.30;64.50
23769;DHT22;12064;50.890;5.424;2022-07-29T17:05:51;29.30;64.40
23769;DHT22;12064;50.890;5.424;2022-07-29T17:14:41;29.30;64.50
23769;DHT22;12064;50.890;5.424;2022-07-29T17:23:32;29.40;64.70
23769;DHT22;12064;50.890;5.424;2022-07-29T17:32:25;29.30;64.70
23769;DHT22;12064;50.890;5.424;2022-07-29T17:41:16;29.30;64.80
23769;DHT22;12064;50.890;5.424;2022-07-29T17:50:09;29.40;64.80
23769;DHT22;12064;50.890;5.424;2022-07-29T17:59:00;29.30;64.80
23769;DHT22;12064;50.890;5.424;2022-07-29T18:07:56;29.30;64.80
23769;DHT22;12064;50.890;5.424;2022-07-29T18:16:47;29.40;65.00
23769;DHT22;12064;50.890;5.424;2022-07-29T18:25:38;29.30;65.30
23769;DHT22;12064;50.890;5.424;2022-07-29T18:34:28;29.30;65.00
23769;DHT22;12064;50.890;5.424;2022-07-29T18:43:22;29.30;63.00
23769;DHT22;12064;50.890;5.424;2022-07-29T18:52:12;29.40;61.20
23769;DHT22;12064;50.890;5.424;2022-07-29T19:01:03;29.30;60.00
23769;DHT22;12064;50.890;5.424;2022-07-29T19:09:54;29.30;60.00
23769;DHT22;12064;50.890;5.424;2022-07-29T19:18:45;29.30;59.30
23769;DHT22;12064;50.890;5.424;2022-07-29T19:27:36;29.40;59.40
23769;DHT22;12064;50.890;5.424;2022-07-29T19:36:33;29.30;59.40
23769;DHT22;12064;50.890;5.424;2022-07-29T19:45:24;29.00;59.50
23769;DHT22;12064;50.890;5.424;2022-07-29T19:54:17;28.80;59.80
23769;DHT22;12064;50.890;5.424;2022-07-29T20:03:15;28.70;59.50
23769;DHT22;12064;50.890;5.424;2022-07-29T20:22:12;28.70;60.00
23769;DHT22;12064;50.890;5.424;2022-07-29T20:31:03;29.40;59.40
23769;DHT22;12064;50.890;5.424;2022-07-29T20:39:54;29.30;59.70
23769;DHT22;12064;50.890;5.424;2022-07-29T20:48:45;29.70;59.80
23769;DHT22;12064;50.890;5.424;2022-07-29T20:57:36;30.00;59.40
23769;DHT22;12064;50.890;5.424;2022-07-29T21:06:27;30.10;59.80
23769;DHT22;12064;50.890;5.424;2022-07-29T21:15:18;30.20;59.90
23769;DHT22;12064;50.890;5.424;2022-07-29T21:24:10;30.30;60.10
23769;DHT22;12064;50.890;5.424;2022-07-29T21:43:13;29.00;58.80
23769;DHT22;12064;50.890;5.424;2022-07-29T21:52:06;28.90;58.80
23769;DHT22;12064;50.890;5.424;2022-07-29T22:00:56;29.00;58.70
23769;DHT22;12064;50.890;5.424;2022-07-29T22:09:47;28.90;58.80
23769;DHT22;12064;50.890;5.424;2022-07-29T22:18:38;28.80;59.00
23769;DHT22;12064;50.890;5.424;2022-07-29T22:27:29;28.70;59.30
23769;DHT22;12064;50.890;5.424;2022-07-29T22:36:19;28.60;59.10
23769;DHT22;12064;50.890;5.424;2022-07-29T22:54:57;28.50;59.30
23769;DHT22;12064;50.890;5.424;2022-07-29T23:03:48;28.60;59.30
23769;DHT22;12064;50.890;5.424;2022-07-29T23:12:39;28.50;59.50
23769;DHT22;12064;50.890;5.424;2022-07-29T23:21:32;28.50;59.70
23769;DHT22;12064;50.890;5.424;2022-07-29T23:30:23;28.40;60.00
23769;DHT22;12064;50.890;5.424;2022-07-29T23:39:13;28.40;60.20
23769;DHT22;12064;50.890;5.424;2022-07-29T23:48:04;28.50;59.80
